Time;durP1;ratioP1;P1;durP2;ratioP2;P2;SDS_P1;SDS_P2;PMS_P1;PMS_P2;Temp;Humidity;BMP_temperature;BMP_pressure;BME280_temperature;BME280_humidity;BME280_pressure;Samples;Min_cycle;Max_cycle;Signal;HPM_P1;HPM_P2
2021/05/07 00:02:21;;;;;;;2.78;0.90;;;;;;;;;;5038443;28;20149;-84
2021/05/07 00:04:46;;;;;;;2.17;0.75;;;;;;;;;;5021918;28;20460;-82
2021/05/07 00:07:12;;;;;;;2.85;0.93;;;;;;;;;;5034000;28;20113;-83
2021/05/07 00:09:37;;;;;;;1.10;0.60;;;;;;;;;;5015636;28;20032;-81
2021/05/07 00:12:04;;;;;;;1.75;0.60;;;;;;;;;;5019690;28;20018;-84
2021/05/07 00:14:29;;;;;;;1.70;0.57;;;;;;;;;;5037227;28;20026;-84
2021/05/07 00:16:56;;;;;;;1.33;0.60;;;;;;;;;;5018018;28;20024;-83
2021/05/07 00:19:21;;;;;;;1.38;0.50;;;;;;;;;;5032160;28;20116;-84
2021/05/07 00:21:46;;;;;;;1.20;0.55;;;;;;;;;;5033725;28;20915;-83
2021/05/07 00:24:12;;;;;;;1.67;0.50;;;;;;;;;;5036719;28;20026;-83
2021/05/07 00:26:37;;;;;;;0.70;0.40;;;;;;;;;;5046721;28;20036;-82
2021/05/07 00:29:02;;;;;;;2.17;0.93;;;;;;;;;;5052882;28;20021;-83
2021/05/07 00:31:27;;;;;;;0.75;0.70;;;;;;;;;;5020143;28;20040;-83
2021/05/07 00:33:53;;;;;;;1.90;0.68;;;;;;;;;;5015809;28;20060;-85
2021/05/07 00:36:18;;;;;;;1.83;0.60;;;;;;;;;;5029528;28;20038;-83
2021/05/07 00:38:43;;;;;;;1.38;0.50;;;;;;;;;;5013639;28;20076;-82
2021/05/07 00:41:09;;;;;;;2.03;0.60;;;;;;;;;;5033927;28;20025;-84
2021/05/07 00:43:36;;;;;;;0.88;0.40;;;;;;;;;;5015063;28;20556;-82
2021/05/07 00:46:01;;;;;;;2.00;0.52;;;;;;;;;;5033335;28;20025;-82
2021/05/07 00:48:28;;;;;;;1.60;0.60;;;;;;;;;;5014996;28;20041;-82
2021/05/07 00:50:53;;;;;;;1.38;0.70;;;;;;;;;;5033356;28;20470;-83
2021/05/07 00:53:19;;;;;;;1.05;0.65;;;;;;;;;;5010004;28;20029;-84
2021/05/07 00:55:46;;;;;;;1.90;0.90;;;;;;;;;;5006410;28;20385;-83
2021/05/07 00:58:11;;;;;;;1.55;0.80;;;;;;;;;;5033662;28;20025;-83
2021/05/07 01:00:36;;;;;;;2.13;0.60;;;;;;;;;;5028960;28;20051;-83
2021/05/07 01:03:02;;;;;;;0.90;0.50;;;;;;;;;;5039782;28;20098;-83
2021/05/07 01:05:27;;;;;;;0.70;0.40;;;;;;;;;;5045886;28;20035;-84
2021/05/07 01:07:53;;;;;;;0.80;0.60;;;;;;;;;;5020688;28;20108;-84
2021/05/07 01:10:18;;;;;;;1.67;0.50;;;;;;;;;;5011679;28;20106;-83
2021/05/07 01:12:44;;;;;;;1.58;0.40;;;;;;;;;;5032198;28;20338;-82
2021/05/07 01:15:15;;;;;;;0.85;0.60;;;;;;;;;;5006965;28;20029;-82
2021/05/07 01:17:45;;;;;;;1.10;0.65;;;;;;;;;;5027169;28;20506;-84
2021/05/07 01:20:17;;;;;;;0.43;0.40;;;;;;;;;;5014719;28;20447;-82
2021/05/07 01:22:43;;;;;;;0.90;0.60;;;;;;;;;;5028928;28;20021;-83
2021/05/07 01:25:10;;;;;;;0.40;0.40;;;;;;;;;;5013004;28;20030;-83
2021/05/07 01:27:39;;;;;;;3.75;0.50;;;;;;;;;;5028885;28;20512;-83
2021/05/07 01:30:33;;;;;;;0.73;0.50;;;;;;;;;;5032731;28;20032;-84
2021/05/07 01:32:58;;;;;;;1.38;0.43;;;;;;;;;;4950637;29;20263;-82
2021/05/07 01:35:31;;;;;;;0.40;0.40;;;;;;;;;;4952898;29;20042;-82
2021/05/07 01:37:57;;;;;;;0.85;0.40;;;;;;;;;;4923361;29;20050;-82
2021/05/07 01:40:26;;;;;;;1.33;0.68;;;;;;;;;;4915065;29;20039;-83
2021/05/07 01:42:53;;;;;;;1.45;0.57;;;;;;;;;;4918068;29;20599;-85
2021/05/07 01:45:19;;;;;;;0.40;0.40;;;;;;;;;;4942814;29;20027;-84
2021/05/07 01:47:44;;;;;;;0.60;0.50;;;;;;;;;;4939014;29;20012;-83
2021/05/07 01:50:10;;;;;;;2.03;0.70;;;;;;;;;;4922310;29;20651;-87
2021/05/07 01:52:36;;;;;;;2.55;0.73;;;;;;;;;;4913374;29;20492;-82
2021/05/07 01:55:03;;;;;;;1.85;0.60;;;;;;;;;;4937907;29;20106;-83
2021/05/07 01:57:31;;;;;;;2.10;0.60;;;;;;;;;;4932480;29;20131;-83
2021/05/07 01:59:56;;;;;;;0.82;0.55;;;;;;;;;;4910450;29;20122;-83
2021/05/07 02:02:21;;;;;;;1.20;0.50;;;;;;;;;;4936547;29;20190;-84
2021/05/07 02:04:46;;;;;;;1.58;0.60;;;;;;;;;;4925873;29;20106;-85
2021/05/07 02:07:12;;;;;;;0.80;0.45;;;;;;;;;;4938924;29;20456;-83
2021/05/07 02:09:37;;;;;;;0.95;0.50;;;;;;;;;;4975629;28;20033;-83
2021/05/07 02:12:02;;;;;;;0.93;0.60;;;;;;;;;;4992815;28;20026;-84
2021/05/07 02:14:27;;;;;;;1.55;0.60;;;;;;;;;;4992506;28;20041;-82
2021/05/07 02:16:52;;;;;;;0.80;0.50;;;;;;;;;;4993125;28;20026;-82
2021/05/07 02:19:19;;;;;;;2.83;0.88;;;;;;;;;;4987881;28;20117;-83
2021/05/07 02:21:44;;;;;;;2.10;0.73;;;;;;;;;;4992264;28;20165;-83
2021/05/07 02:24:11;;;;;;;3.40;0.88;;;;;;;;;;4995205;28;20037;-82
2021/05/07 02:26:36;;;;;;;4.53;1.40;;;;;;;;;;4992236;28;20057;-85
2021/05/07 02:29:02;;;;;;;2.28;0.68;;;;;;;;;;4992813;28;20069;-84
2021/05/07 02:31:27;;;;;;;2.30;0.60;;;;;;;;;;5007680;28;20025;-84
2021/05/07 02:33:52;;;;;;;1.33;0.60;;;;;;;;;;5010698;28;20060;-84
2021/05/07 02:36:17;;;;;;;4.38;0.93;;;;;;;;;;4994956;28;20026;-83
2021/05/07 02:38:42;;;;;;;4.32;0.88;;;;;;;;;;5026811;28;20042;-84
2021/05/07 02:41:08;;;;;;;0.70;0.50;;;;;;;;;;5030457;28;20037;-82
2021/05/07 02:43:33;;;;;;;3.67;0.70;;;;;;;;;;4994943;28;20030;-85
2021/05/07 02:45:58;;;;;;;2.50;0.60;;;;;;;;;;4993320;28;20116;-83
2021/05/07 02:48:24;;;;;;;1.15;0.60;;;;;;;;;;4993587;28;20370;-84
2021/05/07 02:50:49;;;;;;;0.75;0.60;;;;;;;;;;5010551;28;20106;-84
2021/05/07 02:53:14;;;;;;;1.92;0.60;;;;;;;;;;4994061;28;20072;-84
2021/05/07 02:55:39;;;;;;;1.02;0.70;;;;;;;;;;5024840;28;20006;-82
2021/05/07 02:58:05;;;;;;;0.73;0.60;;;;;;;;;;5020940;28;20026;-84
2021/05/07 03:00:30;;;;;;;1.33;0.50;;;;;;;;;;5004804;28;20050;-83
2021/05/07 03:02:56;;;;;;;1.35;0.60;;;;;;;;;;4989357;28;20018;-84
2021/05/07 03:05:22;;;;;;;1.42;0.50;;;;;;;;;;5010038;28;20025;-83
2021/05/07 03:07:48;;;;;;;1.10;0.63;;;;;;;;;;5009018;28;20082;-84
2021/05/07 03:10:13;;;;;;;1.65;0.68;;;;;;;;;;5006075;28;20029;-84
2021/05/07 03:12:38;;;;;;;3.55;0.80;;;;;;;;;;5009472;28;20109;-84
2021/05/07 03:15:05;;;;;;;2.00;0.68;;;;;;;;;;4992951;28;20029;-84
2021/05/07 03:17:30;;;;;;;2.60;0.70;;;;;;;;;;4992606;28;20118;-84
2021/05/07 03:19:55;;;;;;;1.05;0.57;;;;;;;;;;4993924;28;20058;-83
2021/05/07 03:22:21;;;;;;;1.02;0.50;;;;;;;;;;5005421;28;20018;-85
2021/05/07 03:24:46;;;;;;;0.60;0.55;;;;;;;;;;5008718;28;20033;-85
2021/05/07 03:27:11;;;;;;;1.48;0.50;;;;;;;;;;5011740;28;20463;-84
2021/05/07 03:29:37;;;;;;;3.47;0.60;;;;;;;;;;5011009;28;20033;-82
2021/05/07 03:32:02;;;;;;;1.73;0.75;;;;;;;;;;5003729;28;20044;-84
2021/05/07 03:34:28;;;;;;;1.00;0.60;;;;;;;;;;5013559;28;20033;-84
2021/05/07 03:36:54;;;;;;;2.05;0.70;;;;;;;;;;5010805;28;20097;-84
2021/05/07 03:39:20;;;;;;;1.38;0.70;;;;;;;;;;5015636;28;20569;-85
2021/05/07 03:41:45;;;;;;;0.95;0.60;;;;;;;;;;4999066;28;20304;-85
2021/05/07 03:44:10;;;;;;;1.48;0.70;;;;;;;;;;5027717;28;20104;-84
2021/05/07 03:46:35;;;;;;;2.80;0.75;;;;;;;;;;5039228;28;20025;-84
2021/05/07 03:49:01;;;;;;;3.00;0.77;;;;;;;;;;5031629;28;20422;-85
2021/05/07 03:51:26;;;;;;;3.47;1.13;;;;;;;;;;5015531;28;20022;-86
2021/05/07 03:53:51;;;;;;;2.47;0.90;;;;;;;;;;5018187;28;20105;-84
2021/05/07 03:56:16;;;;;;;2.90;0.90;;;;;;;;;;5037827;28;20041;-83
2021/05/07 03:58:42;;;;;;;3.63;1.20;;;;;;;;;;5027121;28;20030;-83
2021/05/07 04:01:08;;;;;;;2.80;0.90;;;;;;;;;;5017751;28;20064;-85
2021/05/07 04:03:34;;;;;;;5.05;1.05;;;;;;;;;;5021566;28;20044;-82
2021/05/07 04:05:59;;;;;;;5.75;1.42;;;;;;;;;;5014025;28;20025;-83
2021/05/07 04:08:27;;;;;;;4.93;1.10;;;;;;;;;;5018110;28;20017;-82
2021/05/07 04:11:51;;;;;;;2.00;1.00;;;;;;;;;;5014166;28;20048;-82
2021/05/07 04:13:42;;;;;;;2.33;0.90;;;;;;;;;;5011077;28;20030;-84
2021/05/07 04:16:07;;;;;;;2.20;0.80;;;;;;;;;;5017398;28;20021;-86
2021/05/07 04:18:33;;;;;;;3.03;0.95;;;;;;;;;;5020811;28;20045;-84
2021/05/07 04:20:59;;;;;;;4.40;0.98;;;;;;;;;;5026973;28;20036;-83
2021/05/07 04:23:24;;;;;;;2.53;0.80;;;;;;;;;;5032601;28;20097;-84
2021/05/07 04:25:51;;;;;;;4.43;1.20;;;;;;;;;;5020791;28;20014;-83
2021/05/07 04:28:16;;;;;;;2.65;1.20;;;;;;;;;;5008422;28;20543;-80
2021/05/07 04:30:41;;;;;;;4.25;1.10;;;;;;;;;;5011690;28;20030;-80
2021/05/07 04:33:08;;;;;;;2.53;1.00;;;;;;;;;;5013553;28;20040;-79
2021/05/07 04:35:33;;;;;;;3.78;1.10;;;;;;;;;;5012538;28;20085;-81
2021/05/07 04:37:58;;;;;;;3.65;1.10;;;;;;;;;;5010520;28;20098;-81
2021/05/07 04:40:23;;;;;;;2.58;1.00;;;;;;;;;;5013380;28;20033;-80
2021/05/07 04:42:49;;;;;;;4.88;1.10;;;;;;;;;;5012827;28;20355;-80
2021/05/07 04:45:15;;;;;;;4.07;1.05;;;;;;;;;;5010910;28;20377;-79
2021/05/07 04:47:40;;;;;;;2.92;1.15;;;;;;;;;;5017141;28;20014;-80
2021/05/07 04:50:06;;;;;;;3.58;1.10;;;;;;;;;;5023198;28;20038;-80
2021/05/07 04:52:31;;;;;;;2.03;1.02;;;;;;;;;;5032278;28;20048;-79
2021/05/07 04:54:57;;;;;;;2.47;1.00;;;;;;;;;;5018057;28;20130;-80
2021/05/07 04:57:23;;;;;;;3.30;1.35;;;;;;;;;;5011388;28;20488;-80
2021/05/07 04:59:48;;;;;;;5.85;1.30;;;;;;;;;;5012930;28;20034;-80
2021/05/07 05:02:13;;;;;;;3.25;0.98;;;;;;;;;;5026083;28;20057;-80
2021/05/07 05:04:38;;;;;;;4.90;0.95;;;;;;;;;;5014998;28;20398;-80
2021/05/07 05:07:07;;;;;;;3.15;1.40;;;;;;;;;;5018789;28;20018;-80
2021/05/07 05:09:32;;;;;;;6.63;1.60;;;;;;;;;;5003189;28;20029;-80
2021/05/07 05:11:57;;;;;;;2.83;1.17;;;;;;;;;;5024018;28;20233;-80
2021/05/07 05:14:22;;;;;;;2.53;1.00;;;;;;;;;;5015416;28;20113;-80
2021/05/07 05:16:48;;;;;;;1.40;0.62;;;;;;;;;;5024059;28;20040;-80
2021/05/07 05:19:13;;;;;;;4.95;0.98;;;;;;;;;;5012311;28;20045;-80
2021/05/07 05:21:41;;;;;;;1.40;0.57;;;;;;;;;;5030422;28;20048;-81
2021/05/07 05:24:07;;;;;;;2.50;0.60;;;;;;;;;;5017289;28;20017;-82
2021/05/07 05:26:32;;;;;;;2.22;0.90;;;;;;;;;;5013311;28;20037;-78
2021/05/07 05:28:57;;;;;;;5.10;1.00;;;;;;;;;;5009029;28;20477;-78
2021/05/07 05:31:22;;;;;;;2.55;1.13;;;;;;;;;;5009331;28;20030;-82
2021/05/07 05:33:47;;;;;;;1.67;0.75;;;;;;;;;;4991684;28;20334;-81
2021/05/07 05:36:13;;;;;;;3.50;0.98;;;;;;;;;;4998721;28;20021;-81
2021/05/07 05:38:38;;;;;;;2.00;0.70;;;;;;;;;;4994137;28;20036;-81
2021/05/07 05:41:03;;;;;;;2.15;1.20;;;;;;;;;;5015814;28;20056;-82
2021/05/07 05:43:28;;;;;;;1.88;0.60;;;;;;;;;;5013572;28;20026;-80
2021/05/07 05:45:56;;;;;;;1.25;0.73;;;;;;;;;;4997687;28;20024;-81
2021/05/07 05:48:23;;;;;;;4.63;1.10;;;;;;;;;;4992181;28;20033;-83
2021/05/07 05:50:52;;;;;;;3.42;0.93;;;;;;;;;;4995605;28;20106;-80
2021/05/07 05:53:17;;;;;;;2.50;1.10;;;;;;;;;;5014433;28;20017;-81
2021/05/07 05:55:43;;;;;;;3.50;0.90;;;;;;;;;;5034291;28;20006;-81
2021/05/07 05:58:08;;;;;;;3.58;1.10;;;;;;;;;;5028956;28;20034;-80
2021/05/07 06:00:34;;;;;;;4.18;1.10;;;;;;;;;;5013429;28;20077;-81
2021/05/07 06:02:59;;;;;;;3.80;1.00;;;;;;;;;;5009980;28;20049;-81
2021/05/07 06:05:24;;;;;;;1.63;0.90;;;;;;;;;;5011299;28;20049;-80
2021/05/07 06:07:50;;;;;;;1.70;0.90;;;;;;;;;;5015445;28;20018;-80
2021/05/07 06:10:15;;;;;;;2.45;0.90;;;;;;;;;;5008850;28;20034;-80
2021/05/07 06:12:42;;;;;;;3.50;1.10;;;;;;;;;;5009256;28;20021;-78
2021/05/07 06:15:08;;;;;;;2.88;1.00;;;;;;;;;;5005039;28;20026;-80
2021/05/07 06:17:33;;;;;;;2.92;0.88;;;;;;;;;;5014188;28;20032;-78
2021/05/07 06:20:02;;;;;;;0.60;0.60;;;;;;;;;;5004301;28;20105;-80
2021/05/07 06:22:27;;;;;;;1.80;0.80;;;;;;;;;;5011395;28;20025;-78
2021/05/07 06:24:52;;;;;;;1.90;1.00;;;;;;;;;;5010166;28;20021;-79
2021/05/07 06:27:17;;;;;;;1.00;0.60;;;;;;;;;;5009595;28;20026;-79
2021/05/07 06:29:43;;;;;;;2.03;0.70;;;;;;;;;;5013333;28;20385;-79
2021/05/07 06:32:08;;;;;;;0.57;0.40;;;;;;;;;;5009117;28;20022;-79
2021/05/07 06:34:33;;;;;;;1.65;0.70;;;;;;;;;;5009389;28;20413;-80
2021/05/07 06:36:59;;;;;;;0.75;0.30;;;;;;;;;;5010038;28;20030;-80
2021/05/07 06:39:28;;;;;;;2.85;0.60;;;;;;;;;;5011313;28;20042;-80
2021/05/07 06:41:54;;;;;;;0.75;0.50;;;;;;;;;;5010210;28;20517;-76
2021/05/07 06:44:19;;;;;;;0.40;0.40;;;;;;;;;;4995467;28;20053;-80
2021/05/07 06:46:44;;;;;;;0.85;0.43;;;;;;;;;;5009898;28;20020;-81
2021/05/07 06:49:09;;;;;;;1.05;0.40;;;;;;;;;;5009600;28;20010;-79
2021/05/07 06:51:34;;;;;;;0.30;0.30;;;;;;;;;;5012038;28;20101;-81
2021/05/07 06:54:00;;;;;;;0.30;0.30;;;;;;;;;;5017763;28;20045;-81
2021/05/07 06:56:25;;;;;;;1.15;0.40;;;;;;;;;;5010550;28;20029;-81
2021/05/07 06:58:50;;;;;;;2.80;0.40;;;;;;;;;;5017328;28;20065;-80
2021/05/07 07:01:15;;;;;;;0.20;0.20;;;;;;;;;;5045990;28;20115;-82
2021/05/07 07:03:41;;;;;;;2.00;0.52;;;;;;;;;;5019993;28;20013;-83
2021/05/07 07:06:06;;;;;;;0.43;0.30;;;;;;;;;;5031999;28;20037;-79
2021/05/07 07:08:31;;;;;;;0.20;0.20;;;;;;;;;;5030583;28;20496;-81
2021/05/07 07:10:58;;;;;;;0.77;0.30;;;;;;;;;;5030450;28;20095;-80
2021/05/07 07:13:23;;;;;;;0.88;0.30;;;;;;;;;;5031862;28;20055;-81
2021/05/07 07:15:49;;;;;;;0.45;0.20;;;;;;;;;;5034444;28;20033;-81
2021/05/07 07:18:17;;;;;;;0.40;0.40;;;;;;;;;;5034371;28;20025;-83
2021/05/07 07:20:43;;;;;;;0.73;0.40;;;;;;;;;;5034398;28;20412;-80
2021/05/07 07:23:08;;;;;;;0.30;0.30;;;;;;;;;;5031951;28;20030;-82
2021/05/07 07:25:33;;;;;;;0.80;0.40;;;;;;;;;;5034151;28;20043;-80
2021/05/07 07:27:59;;;;;;;0.75;0.50;;;;;;;;;;5034953;28;20056;-81
2021/05/07 07:30:24;;;;;;;0.95;0.50;;;;;;;;;;5016924;28;20053;-82
2021/05/07 07:32:50;;;;;;;0.82;0.40;;;;;;;;;;5017140;28;20056;-81
2021/05/07 07:35:16;;;;;;;1.05;0.50;;;;;;;;;;5016798;28;20033;-81
2021/05/07 07:37:41;;;;;;;0.40;0.32;;;;;;;;;;5032774;28;20095;-80
2021/05/07 07:40:07;;;;;;;2.85;0.70;;;;;;;;;;5034835;28;20033;-82
2021/05/07 07:42:32;;;;;;;1.10;0.68;;;;;;;;;;5037961;28;20026;-81
2021/05/07 07:44:57;;;;;;;1.77;0.60;;;;;;;;;;5040585;28;20025;-82
2021/05/07 07:47:22;;;;;;;1.65;0.50;;;;;;;;;;5026486;28;20033;-81
2021/05/07 07:49:48;;;;;;;1.00;0.63;;;;;;;;;;5053738;28;20075;-82
2021/05/07 07:52:14;;;;;;;0.85;0.60;;;;;;;;;;5053840;28;20018;-82
2021/05/07 07:54:39;;;;;;;2.80;0.68;;;;;;;;;;5027017;28;20033;-82
2021/05/07 07:57:04;;;;;;;1.95;0.77;;;;;;;;;;5041170;28;20021;-81
2021/05/07 07:59:33;;;;;;;2.55;1.00;;;;;;;;;;5040117;28;20124;-86
2021/05/07 08:01:58;;;;;;;3.50;0.90;;;;;;;;;;5010363;28;20269;-88
2021/05/07 08:04:23;;;;;;;2.85;0.93;;;;;;;;;;4988807;28;20018;-82
2021/05/07 08:06:49;;;;;;;2.00;0.80;;;;;;;;;;5024868;28;20860;-81
2021/05/07 08:09:14;;;;;;;2.75;1.00;;;;;;;;;;5015213;28;20086;-81
2021/05/07 08:11:39;;;;;;;1.63;0.85;;;;;;;;;;4985508;28;20046;-81
2021/05/07 08:14:05;;;;;;;1.73;1.13;;;;;;;;;;4996623;28;20029;-82
2021/05/07 08:16:30;;;;;;;1.92;0.90;;;;;;;;;;5014221;28;20037;-80
2021/05/07 08:18:55;;;;;;;2.65;1.00;;;;;;;;;;5012275;28;20068;-81
2021/05/07 08:21:22;;;;;;;1.88;0.68;;;;;;;;;;5012775;28;20025;-82
2021/05/07 08:23:47;;;;;;;0.70;0.60;;;;;;;;;;5008318;28;20033;-81
2021/05/07 08:26:13;;;;;;;0.52;0.50;;;;;;;;;;5011997;28;20026;-80
2021/05/07 08:28:38;;;;;;;0.50;0.50;;;;;;;;;;5014236;28;20500;-81
2021/05/07 08:31:04;;;;;;;0.40;0.40;;;;;;;;;;5000413;28;20033;-80
2021/05/07 08:33:30;;;;;;;1.02;0.50;;;;;;;;;;5002667;28;20106;-78
2021/05/07 08:35:55;;;;;;;0.60;0.60;;;;;;;;;;5014655;28;20108;-77
2021/05/07 08:38:20;;;;;;;0.40;0.40;;;;;;;;;;5013060;28;20037;-78
2021/05/07 08:40:46;;;;;;;0.50;0.50;;;;;;;;;;5011605;28;20036;-77
2021/05/07 08:43:13;;;;;;;1.00;0.50;;;;;;;;;;5011527;28;20038;-77
2021/05/07 08:45:38;;;;;;;0.43;0.40;;;;;;;;;;5007198;28;20056;-78
2021/05/07 08:48:04;;;;;;;1.58;0.60;;;;;;;;;;5010181;28;20485;-77
2021/05/07 08:50:30;;;;;;;0.73;0.50;;;;;;;;;;5011286;28;20033;-79
2021/05/07 08:52:55;;;;;;;1.55;0.50;;;;;;;;;;5011414;28;20022;-78
2021/05/07 08:55:20;;;;;;;0.65;0.40;;;;;;;;;;5011826;28;20535;-77
2021/05/07 08:57:45;;;;;;;0.98;0.52;;;;;;;;;;5009846;28;20076;-77
2021/05/07 09:00:11;;;;;;;0.70;0.50;;;;;;;;;;5004382;28;20054;-80
2021/05/07 09:02:36;;;;;;;0.40;0.40;;;;;;;;;;5011153;28;20018;-78
2021/05/07 09:05:02;;;;;;;0.63;0.45;;;;;;;;;;5013536;28;20086;-82
2021/05/07 09:07:30;;;;;;;1.27;0.57;;;;;;;;;;5016858;28;20006;-82
2021/05/07 09:10:01;;;;;;;1.00;0.57;;;;;;;;;;5015996;28;20112;-79
2021/05/07 09:12:29;;;;;;;0.75;0.60;;;;;;;;;;5016461;28;20025;-78
2021/05/07 09:14:54;;;;;;;2.75;0.63;;;;;;;;;;5011631;28;20096;-78
2021/05/07 09:17:21;;;;;;;0.70;0.60;;;;;;;;;;5010576;28;20763;-78
2021/05/07 09:19:46;;;;;;;0.93;0.60;;;;;;;;;;5011010;28;20034;-76
2021/05/07 09:22:20;;;;;;;1.15;0.70;;;;;;;;;;5009542;28;20600;-76
2021/05/07 09:24:45;;;;;;;1.15;0.70;;;;;;;;;;5010784;28;20397;-77
2021/05/07 09:27:19;;;;;;;0.55;0.40;;;;;;;;;;5011007;28;20038;-76
2021/05/07 09:29:44;;;;;;;0.68;0.50;;;;;;;;;;5011427;28;20010;-80
2021/05/07 09:32:10;;;;;;;0.95;0.50;;;;;;;;;;5010783;28;20029;-79
2021/05/07 09:34:36;;;;;;;2.33;0.50;;;;;;;;;;5010612;28;20022;-76
2021/05/07 09:37:11;;;;;;;1.17;0.60;;;;;;;;;;5010013;28;20009;-76
2021/05/07 09:39:37;;;;;;;0.88;0.40;;;;;;;;;;5011048;28;20034;-81
2021/05/07 09:42:02;;;;;;;0.50;0.35;;;;;;;;;;5010700;28;20022;-77
2021/05/07 09:44:32;;;;;;;0.82;0.50;;;;;;;;;;5010942;28;20394;-78
2021/05/07 09:46:58;;;;;;;0.30;0.30;;;;;;;;;;5014105;28;20388;-77
2021/05/07 09:49:32;;;;;;;2.33;0.47;;;;;;;;;;5006897;28;20100;-77
2021/05/07 09:51:58;;;;;;;0.40;0.40;;;;;;;;;;5007903;28;20116;-77
2021/05/07 09:54:24;;;;;;;1.70;0.40;;;;;;;;;;5010423;28;20109;-79
2021/05/07 09:56:49;;;;;;;0.50;0.40;;;;;;;;;;5009136;28;20018;-76
2021/05/07 09:59:23;;;;;;;0.85;0.60;;;;;;;;;;5009498;28;20053;-76
2021/05/07 10:01:49;;;;;;;0.63;0.57;;;;;;;;;;5009645;28;20416;-77
2021/05/07 10:04:14;;;;;;;1.15;0.70;;;;;;;;;;5011006;28;20030;-76
2021/05/07 10:06:40;;;;;;;0.65;0.63;;;;;;;;;;5009207;28;20030;-78
2021/05/07 10:09:06;;;;;;;1.55;0.60;;;;;;;;;;5008885;28;20072;-77
2021/05/07 10:11:36;;;;;;;1.70;0.77;;;;;;;;;;5012877;28;20029;-77
2021/05/07 10:14:01;;;;;;;;;;;;;;;;;;5018664;28;20569;-76
2021/05/07 10:16:30;;;;;;;0.93;0.65;;;;;;;;;;5010834;28;20372;-77
2021/05/07 10:18:59;;;;;;;1.20;0.90;;;;;;;;;;5009393;28;20288;-77
2021/05/07 10:21:32;;;;;;;1.95;0.85;;;;;;;;;;5007584;28;20422;-77
2021/05/07 10:23:58;;;;;;;0.98;0.70;;;;;;;;;;5016967;28;20022;-77
2021/05/07 10:26:36;;;;;;;1.23;0.75;;;;;;;;;;5016419;28;20496;-76
2021/05/07 10:29:02;;;;;;;0.70;0.60;;;;;;;;;;4991147;28;20030;-78
2021/05/07 10:31:27;;;;;;;1.52;0.90;;;;;;;;;;5010162;28;20041;-78
2021/05/07 10:33:56;;;;;;;1.17;0.80;;;;;;;;;;5009580;28;20014;-77
2021/05/07 10:36:21;;;;;;;0.90;0.80;;;;;;;;;;5007729;28;20068;-77
2021/05/07 10:38:47;;;;;;;0.98;0.80;;;;;;;;;;5009462;28;20112;-76
2021/05/07 10:41:12;;;;;;;0.93;0.73;;;;;;;;;;5019866;28;20025;-77
2021/05/07 10:43:42;;;;;;;1.30;0.60;;;;;;;;;;5016738;28;20121;-77
2021/05/07 10:46:18;;;;;;;1.05;0.80;;;;;;;;;;5023452;28;20021;-76
2021/05/07 10:48:50;;;;;;;1.48;0.80;;;;;;;;;;5017765;28;20075;-77
2021/05/07 10:51:16;;;;;;;0.85;0.73;;;;;;;;;;5020001;28;20141;-76
2021/05/07 10:53:42;;;;;;;1.42;0.82;;;;;;;;;;5008755;28;20033;-77
2021/05/07 10:56:16;;;;;;;1.48;1.00;;;;;;;;;;5017179;28;20018;-77
2021/05/07 10:58:41;;;;;;;2.08;0.80;;;;;;;;;;5017329;28;20473;-76
2021/05/07 11:01:19;;;;;;;2.40;1.20;;;;;;;;;;4976610;28;20068;-77
2021/05/07 11:03:44;;;;;;;1.73;1.30;;;;;;;;;;5009052;28;20026;-78
2021/05/07 11:06:09;;;;;;;1.48;1.10;;;;;;;;;;5009841;28;20029;-78
2021/05/07 11:08:35;;;;;;;1.70;1.20;;;;;;;;;;5008989;28;20060;-78
2021/05/07 11:11:00;;;;;;;2.08;1.50;;;;;;;;;;5007706;28;20380;-78
2021/05/07 11:13:26;;;;;;;3.85;1.73;;;;;;;;;;5000763;28;20126;-76
2021/05/07 11:15:55;;;;;;;2.85;1.40;;;;;;;;;;5009983;28;20087;-78
2021/05/07 11:18:25;;;;;;;3.03;1.90;;;;;;;;;;5007576;28;20074;-79
2021/05/07 11:20:51;;;;;;;2.47;1.98;;;;;;;;;;5006920;28;20308;-77
2021/05/07 11:23:18;;;;;;;2.65;1.80;;;;;;;;;;5000520;28;20209;-77
2021/05/07 11:25:43;;;;;;;2.85;1.90;;;;;;;;;;5003101;28;20080;-77
2021/05/07 11:28:11;;;;;;;3.33;2.20;;;;;;;;;;5000187;28;20489;-77
2021/05/07 11:31:12;;;;;;;3.17;1.80;;;;;;;;;;5000688;28;20129;-78
2021/05/07 11:33:41;;;;;;;3.55;2.45;;;;;;;;;;4941069;29;20028;-77
2021/05/07 11:36:08;;;;;;;3.75;2.20;;;;;;;;;;4948001;28;20046;-77
2021/05/07 11:38:34;;;;;;;4.10;2.65;;;;;;;;;;4942233;29;20056;-77
2021/05/07 11:40:59;;;;;;;4.05;3.20;;;;;;;;;;4962188;29;20047;-76
2021/05/07 11:43:25;;;;;;;3.92;2.95;;;;;;;;;;4963394;29;20418;-76
2021/05/07 11:46:01;;;;;;;4.53;3.10;;;;;;;;;;4956477;29;20027;-78
2021/05/07 11:48:28;;;;;;;3.92;2.80;;;;;;;;;;4951634;29;20035;-77
2021/05/07 11:50:53;;;;;;;5.32;3.13;;;;;;;;;;4949856;29;20118;-77
2021/05/07 11:53:21;;;;;;;4.30;2.92;;;;;;;;;;4949386;29;20598;-77
2021/05/07 11:55:46;;;;;;;4.00;3.05;;;;;;;;;;4950600;29;20036;-76
2021/05/07 11:58:11;;;;;;;5.10;3.20;;;;;;;;;;4950806;28;20355;-79
2021/05/07 12:00:37;;;;;;;5.47;3.90;;;;;;;;;;4948605;29;20472;-77
2021/05/07 12:03:07;;;;;;;4.78;3.50;;;;;;;;;;4923861;29;20090;-77
2021/05/07 12:05:35;;;;;;;5.05;3.30;;;;;;;;;;4935523;29;20103;-76
2021/05/07 12:08:01;;;;;;;5.32;3.75;;;;;;;;;;5003278;28;20026;-76
2021/05/07 12:10:27;;;;;;;5.40;3.80;;;;;;;;;;5018305;28;20030;-78
2021/05/07 12:12:54;;;;;;;6.43;4.32;;;;;;;;;;4999944;28;20026;-76
2021/05/07 12:15:20;;;;;;;4.90;3.70;;;;;;;;;;5014638;28;20380;-76
2021/05/07 12:17:46;;;;;;;7.88;4.15;;;;;;;;;;5024134;28;20025;-75
2021/05/07 12:20:13;;;;;;;5.05;3.13;;;;;;;;;;5012203;28;20030;-77
2021/05/07 12:22:39;;;;;;;4.95;2.90;;;;;;;;;;5014822;28;20108;-77
2021/05/07 12:25:12;;;;;;;5.57;3.28;;;;;;;;;;5017086;28;20029;-76
2021/05/07 12:27:39;;;;;;;4.07;3.00;;;;;;;;;;5011956;28;20026;-73
2021/05/07 12:30:25;;;;;;;4.50;3.45;;;;;;;;;;5012069;28;20132;-75
2021/05/07 12:32:53;;;;;;;4.55;3.50;;;;;;;;;;5018260;28;20030;-75
2021/05/07 12:35:18;;;;;;;6.45;3.28;;;;;;;;;;5031423;28;20038;-74
2021/05/07 12:37:45;;;;;;;5.18;3.25;;;;;;;;;;5019376;28;20466;-75
2021/05/07 12:40:11;;;;;;;6.53;4.00;;;;;;;;;;5012594;28;20121;-74
2021/05/07 12:42:36;;;;;;;5.18;3.83;;;;;;;;;;5023372;28;20108;-75
2021/05/07 12:45:01;;;;;;;5.43;3.22;;;;;;;;;;5024817;28;20090;-74
2021/05/07 12:47:26;;;;;;;3.53;2.30;;;;;;;;;;5030440;28;20145;-75
2021/05/07 12:49:51;;;;;;;4.32;2.60;;;;;;;;;;5029858;28;20764;-76
2021/05/07 12:52:17;;;;;;;4.53;2.63;;;;;;;;;;5021746;28;20030;-74
2021/05/07 12:54:42;;;;;;;4.45;2.40;;;;;;;;;;5010917;28;20038;-75
2021/05/07 12:57:07;;;;;;;4.18;2.42;;;;;;;;;;5012012;28;20788;-75
2021/05/07 12:59:32;;;;;;;4.13;2.13;;;;;;;;;;5014241;28;20034;-75
2021/05/07 13:01:57;;;;;;;3.35;1.88;;;;;;;;;;5023654;28;20080;-74
2021/05/07 13:04:23;;;;;;;3.17;1.75;;;;;;;;;;5005134;28;20040;-75
2021/05/07 13:06:48;;;;;;;3.67;2.00;;;;;;;;;;5028153;28;20473;-74
2021/05/07 13:09:13;;;;;;;3.15;1.98;;;;;;;;;;5015725;28;20101;-74
2021/05/07 13:11:38;;;;;;;4.97;2.40;;;;;;;;;;5010432;28;20462;-74
2021/05/07 13:14:04;;;;;;;4.30;2.55;;;;;;;;;;5001510;28;20118;-74
2021/05/07 13:16:29;;;;;;;4.97;2.55;;;;;;;;;;5018154;28;20030;-75
2021/05/07 13:18:54;;;;;;;3.85;2.30;;;;;;;;;;4993288;28;20030;-75
2021/05/07 13:21:20;;;;;;;5.53;2.72;;;;;;;;;;5004611;28;20099;-74
2021/05/07 13:23:45;;;;;;;6.22;3.08;;;;;;;;;;4997622;28;20104;-75
2021/05/07 13:26:10;;;;;;;3.78;2.15;;;;;;;;;;5011442;28;20028;-75
2021/05/07 13:28:35;;;;;;;3.85;2.40;;;;;;;;;;5021831;28;20024;-75
2021/05/07 13:31:00;;;;;;;2.90;2.28;;;;;;;;;;5035935;28;20075;-76
2021/05/07 13:33:34;;;;;;;3.63;2.17;;;;;;;;;;5007237;28;20436;-76
2021/05/07 13:35:59;;;;;;;3.85;2.50;;;;;;;;;;5019968;28;20527;-76
2021/05/07 13:38:24;;;;;;;4.53;2.40;;;;;;;;;;4996503;28;20029;-74
2021/05/07 13:40:52;;;;;;;4.20;2.40;;;;;;;;;;5029850;28;20050;-75
2021/05/07 13:43:17;;;;;;;6.43;2.42;;;;;;;;;;5010921;28;20030;-75
2021/05/07 13:45:42;;;;;;;4.93;2.65;;;;;;;;;;5020581;28;20028;-76
2021/05/07 13:48:08;;;;;;;5.00;2.13;;;;;;;;;;5022080;28;20357;-74
2021/05/07 13:50:33;;;;;;;3.08;2.20;;;;;;;;;;5010195;28;20385;-76
2021/05/07 13:52:58;;;;;;;3.10;2.10;;;;;;;;;;5017724;28;20097;-76
2021/05/07 13:55:23;;;;;;;4.65;2.20;;;;;;;;;;5009602;28;20066;-73
2021/05/07 13:57:48;;;;;;;2.97;2.00;;;;;;;;;;5010973;28;20064;-75
2021/05/07 14:00:14;;;;;;;4.28;2.08;;;;;;;;;;5020294;28;20085;-75
2021/05/07 14:02:39;;;;;;;3.42;2.30;;;;;;;;;;5026508;28;20552;-75
2021/05/07 14:05:05;;;;;;;3.60;1.77;;;;;;;;;;4998962;28;20033;-75
2021/05/07 14:07:30;;;;;;;3.47;2.10;;;;;;;;;;5010817;28;20105;-74
2021/05/07 14:09:55;;;;;;;2.95;1.83;;;;;;;;;;5004437;28;20053;-75
2021/05/07 14:12:20;;;;;;;3.05;1.80;;;;;;;;;;5027061;28;20083;-75
2021/05/07 14:14:46;;;;;;;2.33;1.70;;;;;;;;;;5023094;28;20080;-77
2021/05/07 14:17:12;;;;;;;4.25;1.80;;;;;;;;;;5027353;28;20059;-76
2021/05/07 14:19:39;;;;;;;3.50;1.70;;;;;;;;;;4999033;28;20032;-77
2021/05/07 14:22:04;;;;;;;4.95;1.85;;;;;;;;;;5014804;28;20565;-77
2021/05/07 14:24:30;;;;;;;3.65;1.75;;;;;;;;;;5008489;28;20030;-80
2021/05/07 14:26:56;;;;;;;2.90;1.70;;;;;;;;;;5010680;28;20093;-77
2021/05/07 14:29:21;;;;;;;3.03;1.80;;;;;;;;;;5027461;28;20029;-78
2021/05/07 14:31:46;;;;;;;2.70;1.50;;;;;;;;;;5022961;28;20155;-78
2021/05/07 14:34:11;;;;;;;2.83;1.90;;;;;;;;;;5024338;28;20069;-77
2021/05/07 14:36:38;;;;;;;4.40;2.13;;;;;;;;;;5020732;28;20074;-76
2021/05/07 14:39:04;;;;;;;2.97;1.90;;;;;;;;;;5009538;28;20022;-75